createdAt,value
2018-02-14T00:00:49.494Z,13.47
2018-02-14T00:03:17.566Z,15.18
2018-02-14T00:05:45.628Z,12.97
2018-02-14T00:08:13.713Z,14.85
2018-02-14T00:10:41.797Z,13.43
2018-02-14T00:13:09.859Z,12.37
2018-02-14T00:15:37.925Z,14.13
2018-02-14T00:18:06.741Z,12.32
2018-02-14T00:20:34.835Z,13.93
2018-02-14T00:23:02.917Z,12.90
2018-02-14T00:25:32.080Z,11.90
2018-02-14T00:28:01.266Z,15.00
2018-02-14T00:30:29.382Z,14.07
2018-02-14T00:32:57.553Z,12.80
2018-02-14T00:35:25.635Z,14.40
2018-02-14T00:37:53.694Z,13.70
2018-02-14T00:40:21.765Z,12.67
2018-02-14T00:42:49.832Z,14.20
2018-02-14T00:45:17.942Z,12.07
2018-02-14T00:47:46.021Z,12.87
2018-02-14T00:50:14.110Z,13.70
2018-02-14T00:52:42.169Z,16.07
2018-02-14T00:55:10.245Z,13.53
2018-02-14T00:57:38.325Z,15.67
2018-02-14T01:00:06.451Z,13.40
2018-02-14T01:02:35.285Z,15.67
2018-02-14T01:05:03.357Z,13.35
2018-02-14T01:07:31.765Z,14.90
2018-02-14T01:09:59.837Z,13.23
2018-02-14T01:12:27.905Z,14.80
2018-02-14T01:14:55.975Z,16.50
2018-02-14T01:17:24.033Z,13.27
2018-02-14T01:19:58.713Z,13.70
2018-02-14T01:22:26.862Z,13.40
2018-02-14T01:24:55.041Z,11.12
2018-02-14T01:27:23.101Z,13.47
2018-02-14T01:29:53.086Z,13.90
2018-02-14T01:32:21.157Z,12.60
2018-02-14T01:34:50.106Z,12.23
2018-02-14T01:37:18.172Z,14.33
2018-02-14T01:39:46.257Z,14.00
2018-02-14T01:42:14.324Z,13.80
2018-02-14T01:44:42.397Z,13.50
2018-02-14T01:47:10.469Z,13.00
2018-02-14T01:49:38.565Z,14.80
2018-02-14T01:52:06.657Z,13.45
2018-02-14T01:54:34.818Z,13.40
2018-02-14T01:57:02.889Z,14.00
2018-02-14T01:59:30.961Z,14.13
2018-02-14T02:01:59.045Z,13.20
2018-02-14T02:04:27.118Z,14.70
2018-02-14T02:06:55.194Z,13.20
2018-02-14T02:09:23.253Z,15.03
2018-02-14T02:11:52.462Z,14.38
2018-02-14T02:14:20.528Z,14.17
2018-02-14T02:16:48.640Z,13.80
2018-02-14T02:19:16.702Z,13.40
2018-02-14T02:21:44.885Z,14.60
2018-02-14T02:24:12.965Z,12.40
2018-02-14T02:26:41.039Z,14.07
2018-02-14T02:29:09.097Z,12.77
2018-02-14T02:31:37.190Z,13.57
2018-02-14T02:34:05.251Z,15.40
2018-02-14T02:36:33.335Z,13.30
2018-02-14T02:39:01.393Z,14.63
2018-02-14T02:41:29.765Z,12.77
2018-02-14T02:43:57.822Z,13.30
2018-02-14T02:46:26.684Z,13.50
2018-02-14T02:48:54.754Z,12.73
2018-02-14T02:51:22.930Z,13.67
2018-02-14T02:53:52.880Z,15.40
2018-02-14T02:56:20.951Z,12.73
2018-02-14T02:58:49.034Z,12.82
2018-02-14T03:01:17.182Z,13.63
2018-02-14T03:03:45.257Z,12.67
2018-02-14T03:06:13.437Z,13.13
2018-02-14T03:08:41.498Z,12.60
2018-02-14T03:11:09.580Z,12.37
2018-02-14T03:13:37.657Z,14.52
2018-02-14T03:16:05.845Z,14.37
2018-02-14T03:18:33.909Z,14.50
2018-02-14T03:21:02.058Z,11.97
2018-02-14T03:23:30.122Z,14.17
2018-02-14T03:25:58.216Z,10.95
2018-02-14T03:28:26.277Z,14.10
2018-02-14T03:30:54.418Z,13.48
2018-02-14T03:33:22.478Z,11.57
2018-02-14T03:35:50.634Z,12.87
2018-02-14T03:38:18.713Z,12.90
2018-02-14T03:40:46.816Z,11.67
2018-02-14T03:43:14.879Z,12.77
2018-02-14T03:45:42.952Z,11.97
2018-02-14T03:48:11.027Z,13.67
2018-02-14T03:50:39.181Z,13.13
2018-02-14T03:53:07.291Z,13.57
2018-02-14T03:55:35.369Z,12.77
2018-02-14T03:58:04.706Z,13.20
2018-02-14T04:00:34.567Z,13.48
2018-02-14T04:03:03.929Z,13.90
2018-02-14T04:05:33.910Z,13.53
2018-02-14T04:08:01.982Z,15.00
2018-02-14T04:10:30.056Z,14.10
2018-02-14T04:12:58.141Z,13.82
2018-02-14T04:15:26.209Z,13.37
2018-02-14T04:17:54.293Z,14.50
2018-02-14T04:20:22.370Z,13.80
2018-02-14T04:22:50.449Z,14.90
2018-02-14T04:25:18.519Z,15.80
2018-02-14T04:27:46.593Z,17.43
2018-02-14T04:30:20.242Z,13.20
2018-02-14T04:32:49.102Z,16.93
2018-02-14T04:35:17.170Z,14.95
2018-02-14T04:37:45.233Z,17.30
2018-02-14T04:40:13.309Z,15.60
2018-02-14T04:42:41.512Z,14.33
2018-02-14T04:45:09.569Z,15.70
2018-02-14T04:47:37.636Z,15.73
2018-02-14T04:50:05.726Z,13.73
2018-02-14T04:52:34.455Z,14.98
2018-02-14T04:55:02.522Z,15.38
2018-02-14T04:57:30.678Z,15.27
2018-02-14T04:59:58.762Z,14.98
2018-02-14T05:02:26.829Z,15.53
2018-02-14T05:04:54.914Z,14.93
2018-02-14T05:07:23.090Z,14.57
2018-02-14T05:09:52.400Z,15.03
2018-02-14T05:12:20.573Z,13.62
2018-02-14T05:14:48.649Z,14.73
2018-02-14T05:17:16.721Z,13.05
2018-02-14T05:19:44.797Z,13.37
2018-02-14T05:22:12.866Z,15.90
2018-02-14T05:24:40.937Z,15.73
2018-02-14T05:27:09.063Z,14.90
2018-02-14T05:29:37.105Z,11.80
2018-02-14T05:32:05.177Z,15.88
2018-02-14T05:34:33.248Z,13.30
2018-02-14T05:37:01.318Z,14.70
2018-02-14T05:39:29.409Z,12.17
2018-02-14T05:41:57.491Z,13.83
2018-02-14T05:44:25.544Z,14.20
2018-02-14T05:46:53.733Z,15.80
2018-02-14T05:49:21.802Z,14.20
2018-02-14T05:51:49.901Z,15.87
2018-02-14T05:54:17.962Z,14.20
2018-02-14T05:56:46.045Z,16.10
2018-02-14T05:59:14.121Z,14.30
2018-02-14T06:01:42.207Z,13.27
2018-02-14T06:04:10.343Z,15.70
2018-02-14T06:06:38.401Z,14.68
2018-02-14T06:09:07.233Z,13.52
2018-02-14T06:11:36.224Z,14.63
2018-02-14T06:14:05.413Z,15.50
2018-02-14T06:16:33.489Z,14.10
2018-02-14T06:19:01.545Z,16.37
2018-02-14T06:21:30.381Z,15.10
2018-02-14T06:23:58.448Z,19.73
2018-02-14T06:26:26.516Z,24.83
2018-02-14T06:28:54.617Z,15.47
2018-02-14T06:31:22.685Z,15.65
2018-02-14T06:33:50.753Z,15.50
2018-02-14T06:36:18.814Z,14.18
2018-02-14T06:38:46.928Z,14.82
2018-02-14T06:41:15.014Z,16.00
2018-02-14T06:43:43.177Z,16.30
2018-02-14T06:46:11.248Z,15.97
2018-02-14T06:48:39.340Z,16.30
2018-02-14T06:51:07.405Z,17.20
2018-02-14T06:53:36.023Z,17.55
2018-02-14T06:56:04.175Z,14.85
2018-02-14T06:58:32.353Z,16.40
2018-02-14T07:01:00.442Z,14.87
2018-02-14T07:03:28.522Z,15.13
2018-02-14T07:05:56.586Z,17.00
2018-02-14T07:08:24.677Z,14.63
2018-02-14T07:10:52.750Z,69.57
2018-02-14T07:13:20.817Z,38.73
2018-02-14T07:15:48.886Z,16.53
2018-02-14T07:18:17.073Z,15.47
2018-02-14T07:20:45.133Z,15.93
2018-02-14T07:23:13.206Z,14.73
2018-02-14T07:25:41.274Z,16.70
2018-02-14T07:28:10.277Z,17.04
2018-02-14T07:30:39.466Z,15.07
2018-02-14T07:33:07.569Z,14.35
2018-02-14T07:35:35.654Z,13.47
2018-02-14T07:38:03.742Z,14.32
2018-02-14T07:40:32.583Z,12.70
2018-02-14T07:43:00.694Z,11.80
2018-02-14T07:45:28.767Z,12.30
2018-02-14T07:47:56.933Z,12.15
2018-02-14T07:50:24.997Z,12.10
2018-02-14T07:52:53.062Z,14.93
2018-02-14T07:55:21.113Z,13.57
2018-02-14T07:57:49.977Z,13.70
2018-02-14T08:00:18.039Z,12.73
2018-02-14T08:02:46.109Z,14.93
2018-02-14T08:05:14.166Z,13.13
2018-02-14T08:07:42.251Z,13.77
2018-02-14T08:10:10.318Z,14.00
2018-02-14T08:12:38.438Z,15.57
2018-02-14T08:15:06.505Z,15.57
2018-02-14T08:17:34.588Z,14.47
2018-02-14T08:20:02.733Z,14.60
2018-02-14T08:22:30.803Z,14.27
2018-02-14T08:24:58.874Z,13.07
2018-02-14T08:27:26.972Z,16.17
2018-02-14T08:29:55.036Z,15.80
2018-02-14T08:32:23.109Z,13.60
2018-02-14T08:34:52.186Z,13.80
2018-02-14T08:37:21.749Z,15.00
2018-02-14T08:39:49.822Z,14.93
2018-02-14T08:42:17.904Z,15.43
2018-02-14T08:44:45.989Z,14.13
2018-02-14T08:47:14.171Z,14.18
2018-02-14T08:49:42.229Z,14.37
2018-02-14T08:52:11.198Z,15.08
2018-02-14T08:54:39.282Z,14.00
2018-02-14T08:57:07.606Z,11.18
2018-02-14T08:59:35.677Z,11.23
2018-02-14T09:02:03.748Z,9.33
2018-02-14T09:04:31.922Z,8.03
2018-02-14T09:06:59.984Z,9.38
2018-02-14T09:09:28.073Z,9.75
2018-02-14T09:11:56.138Z,8.20
2018-02-14T09:14:24.251Z,8.95
2018-02-14T09:16:52.313Z,8.77
2018-02-14T09:19:20.383Z,7.28
2018-02-14T09:21:48.433Z,7.00
2018-02-14T09:24:16.498Z,7.50
2018-02-14T09:26:44.552Z,7.77
2018-02-14T09:29:14.245Z,8.30
2018-02-14T09:31:42.305Z,7.60
2018-02-14T09:34:11.593Z,7.07
2018-02-14T09:36:39.670Z,7.93
2018-02-14T09:39:07.749Z,6.47
2018-02-14T09:41:35.808Z,6.13
2018-02-14T09:44:03.862Z,6.43
2018-02-14T09:46:31.914Z,6.53
2018-02-14T09:49:00.737Z,5.18
2018-02-14T09:51:28.801Z,6.57
2018-02-14T09:53:56.861Z,7.20
2018-02-14T09:56:25.717Z,6.43
2018-02-14T09:58:53.781Z,6.45
2018-02-14T10:01:21.834Z,6.97
2018-02-14T10:03:49.946Z,5.95
2018-02-14T10:06:18.010Z,5.73
2018-02-14T10:08:46.067Z,4.57
2018-02-14T10:11:14.121Z,5.53
2018-02-14T10:13:42.927Z,5.17
2018-02-14T10:16:12.086Z,5.32
2018-02-14T10:18:40.158Z,5.50
2018-02-14T10:21:08.214Z,5.45
2018-02-14T10:23:36.270Z,5.17
2018-02-14T10:26:04.313Z,5.83
2018-02-14T10:28:33.134Z,5.10
2018-02-14T10:31:01.186Z,5.45
2018-02-14T10:33:30.011Z,5.60
2018-02-14T10:35:58.116Z,6.10
2018-02-14T10:38:26.206Z,6.18
2018-02-14T10:40:54.265Z,6.45
2018-02-14T10:43:22.331Z,5.72
2018-02-14T10:45:50.380Z,5.90
2018-02-14T10:48:19.306Z,6.40
2018-02-14T10:50:47.357Z,6.03
2018-02-14T10:53:15.422Z,6.67
2018-02-14T10:55:43.531Z,6.60
2018-02-14T10:58:12.559Z,6.60
2018-02-14T11:00:46.203Z,6.80
2018-02-14T11:03:19.861Z,6.65
2018-02-14T11:05:53.606Z,7.70
2018-02-14T11:08:21.733Z,7.23
2018-02-14T11:10:49.805Z,6.00
2018-02-14T11:13:17.857Z,5.93
2018-02-14T11:15:45.949Z,7.47
2018-02-14T11:18:14.034Z,6.13
2018-02-14T11:20:42.729Z,5.80
2018-02-14T11:23:10.777Z,6.80
2018-02-14T11:25:38.829Z,6.30
2018-02-14T11:28:06.886Z,5.75
2018-02-14T11:30:35.715Z,6.60
2018-02-14T11:33:03.830Z,6.93
2018-02-14T11:35:31.908Z,7.22
2018-02-14T11:38:00.633Z,5.40
2018-02-14T11:40:29.463Z,7.10
2018-02-14T11:42:57.505Z,6.60
2018-02-14T11:45:26.370Z,6.75
2018-02-14T11:47:55.193Z,7.03
2018-02-14T11:50:24.027Z,6.63
2018-02-14T11:52:53.139Z,6.23
2018-02-14T11:55:21.212Z,7.12
2018-02-14T11:57:49.265Z,5.73
2018-02-14T12:00:17.481Z,7.57
2018-02-14T12:02:45.642Z,8.30
2018-02-14T12:05:13.709Z,7.57
2018-02-14T12:07:41.806Z,7.80
2018-02-14T12:10:09.883Z,8.20
2018-02-14T12:12:37.938Z,8.77
2018-02-14T12:15:05.990Z,8.73
2018-02-14T12:17:34.107Z,7.17
2018-02-14T12:20:02.182Z,7.83
2018-02-14T12:22:30.226Z,7.50
2018-02-14T12:24:58.337Z,7.40
2018-02-14T12:27:26.407Z,8.00
2018-02-14T12:29:54.454Z,8.40
2018-02-14T12:32:22.538Z,6.60
2018-02-14T12:34:50.605Z,8.07
2018-02-14T12:37:18.662Z,9.00
2018-02-14T12:39:47.472Z,9.80
2018-02-14T12:42:15.529Z,9.13
2018-02-14T12:44:43.770Z,9.85
2018-02-14T12:47:11.825Z,9.60
2018-02-14T12:49:39.892Z,10.40
2018-02-14T12:52:07.964Z,10.30
2018-02-14T12:54:36.009Z,10.53
2018-02-14T12:57:04.842Z,9.80
2018-02-14T12:59:32.933Z,11.27
2018-02-14T13:02:01.011Z,10.30
2018-02-14T13:04:29.159Z,11.20
2018-02-14T13:06:57.271Z,12.40
2018-02-14T13:09:25.426Z,11.82
2018-02-14T13:11:53.488Z,12.03
2018-02-14T13:14:21.613Z,10.85
2018-02-14T13:16:49.786Z,11.00
2018-02-14T13:19:17.849Z,11.70
2018-02-14T13:21:45.906Z,12.17
2018-02-14T13:24:14.996Z,13.73
2018-02-14T13:26:44.183Z,12.30
2018-02-14T13:29:14.149Z,12.60
2018-02-14T13:31:42.239Z,13.90
2018-02-14T13:34:10.411Z,13.80
2018-02-14T13:36:38.478Z,14.40
2018-02-14T13:39:06.554Z,13.40
2018-02-14T13:41:34.641Z,13.80
2018-02-14T13:44:02.693Z,12.50
2018-02-14T13:46:30.767Z,13.30
2018-02-14T13:48:58.829Z,12.20
2018-02-14T13:51:26.946Z,12.47
2018-02-14T13:53:55.217Z,11.50
2018-02-14T13:56:23.277Z,11.73
2018-02-14T13:58:52.459Z,11.10
2018-02-14T14:01:20.541Z,11.15
2018-02-14T14:03:48.605Z,14.20
2018-02-14T14:06:16.680Z,12.67
2018-02-14T14:08:45.521Z,11.32
2018-02-14T14:11:14.709Z,13.17
2018-02-14T14:13:42.765Z,12.75
2018-02-14T14:16:10.842Z,22.00
2018-02-14T14:18:38.898Z,16.20
2018-02-14T14:21:07.730Z,14.20
2018-02-14T14:23:35.826Z,14.45
2018-02-14T14:26:03.901Z,14.57
2018-02-14T14:28:31.967Z,14.52
2018-02-14T14:31:00.030Z,16.12
2018-02-14T14:33:28.131Z,14.20
2018-02-14T14:35:56.201Z,17.37
2018-02-14T14:38:24.394Z,14.87
2018-02-14T14:40:52.446Z,17.07
2018-02-14T14:43:20.544Z,15.33
2018-02-14T14:45:48.571Z,17.00
2018-02-14T14:48:16.653Z,16.30
2018-02-14T14:50:46.106Z,20.02
2018-02-14T14:53:15.393Z,17.37
2018-02-14T14:55:43.457Z,19.60
2018-02-14T14:58:11.530Z,18.67
2018-02-14T15:00:39.700Z,18.50
2018-02-14T15:03:07.769Z,19.87
2018-02-14T15:05:35.873Z,19.90
2018-02-14T15:08:03.937Z,22.02
2018-02-14T15:10:32.000Z,20.77
2018-02-14T15:13:00.127Z,20.50
2018-02-14T15:15:28.181Z,20.45
2018-02-14T15:17:56.258Z,22.80
2018-02-14T15:20:24.333Z,27.37
2018-02-14T15:22:52.450Z,21.10
2018-02-14T15:25:21.305Z,21.10
2018-02-14T15:27:49.408Z,23.63
2018-02-14T15:30:17.476Z,22.03
2018-02-14T15:32:46.634Z,20.27
2018-02-14T15:35:15.857Z,21.47
2018-02-14T15:37:43.930Z,21.83
2018-02-14T15:40:12.024Z,20.87
2018-02-14T15:42:40.070Z,22.43
2018-02-14T15:45:09.978Z,20.83
2018-02-14T15:47:38.038Z,19.83
2018-02-14T15:50:06.872Z,21.42
2018-02-14T15:52:35.023Z,21.70
2018-02-14T15:55:03.147Z,19.50
2018-02-14T15:57:31.317Z,21.30
2018-02-14T15:59:59.377Z,21.17
2018-02-14T16:02:27.462Z,21.00
2018-02-14T16:04:55.558Z,21.47
2018-02-14T16:07:23.631Z,23.87
2018-02-14T16:09:52.211Z,23.40
2018-02-14T16:12:20.389Z,22.07
2018-02-14T16:14:48.445Z,20.40
2018-02-14T16:17:16.609Z,20.27
2018-02-14T16:19:44.673Z,20.60
2018-02-14T16:22:12.732Z,19.00
2018-02-14T16:24:41.570Z,19.77
2018-02-14T16:27:09.661Z,22.48
2018-02-14T16:29:37.721Z,20.93
2018-02-14T16:32:05.800Z,22.30
2018-02-14T16:34:33.859Z,21.07
2018-02-14T16:37:01.937Z,22.42
2018-02-14T16:39:30.005Z,21.53
2018-02-14T16:41:58.057Z,20.85
2018-02-14T16:44:26.886Z,22.97
2018-02-14T16:46:54.983Z,22.03
2018-02-14T16:49:23.777Z,22.50
2018-02-14T16:51:52.377Z,21.38
2018-02-14T16:54:20.553Z,22.37
2018-02-14T16:56:48.626Z,21.33
2018-02-14T16:59:18.271Z,22.63
2018-02-14T17:01:47.814Z,23.60
2018-02-14T17:04:17.022Z,23.60
2018-02-14T17:06:45.137Z,23.25
2018-02-14T17:09:13.207Z,22.10
2018-02-14T17:11:41.270Z,23.10
2018-02-14T17:14:09.354Z,21.77
2018-02-14T17:16:37.422Z,22.07
2018-02-14T17:19:05.502Z,24.33
2018-02-14T17:21:33.568Z,25.20
2018-02-14T17:24:01.646Z,22.57
2018-02-14T17:26:29.747Z,23.40
2018-02-14T17:28:57.830Z,22.77
2018-02-14T17:31:25.894Z,21.97
2018-02-14T17:33:53.992Z,23.33
2018-02-14T17:36:22.168Z,22.97
2018-02-14T17:38:50.231Z,24.03
2018-02-14T17:41:18.294Z,25.93
2018-02-14T17:43:47.482Z,23.53
2018-02-14T17:46:15.550Z,22.90
2018-02-14T17:48:43.660Z,22.80
2018-02-14T17:51:11.713Z,25.57
2018-02-14T17:53:39.785Z,24.70
2018-02-14T17:56:07.896Z,22.02
2018-02-14T17:58:35.974Z,25.70
2018-02-14T18:01:04.142Z,24.02
2018-02-14T18:03:33.044Z,24.67
2018-02-14T18:06:01.119Z,23.67
2018-02-14T18:08:29.190Z,23.05
2018-02-14T18:10:57.265Z,24.50
2018-02-14T18:13:25.346Z,22.05
2018-02-14T18:15:53.418Z,26.27
2018-02-14T18:18:21.594Z,23.93
2018-02-14T18:20:49.657Z,25.00
2018-02-14T18:23:18.294Z,24.90
2018-02-14T18:25:48.350Z,24.83
2018-02-14T18:28:16.458Z,24.07
2018-02-14T18:30:44.522Z,26.20
2018-02-14T18:33:12.609Z,25.00
2018-02-14T18:35:40.690Z,24.90
2018-02-14T18:38:08.869Z,24.35
2018-02-14T18:40:37.050Z,24.00
2018-02-14T18:43:05.135Z,25.75
2018-02-14T18:45:33.202Z,24.93
2018-02-14T18:48:01.263Z,28.20
2018-02-14T18:50:29.357Z,26.17
2018-02-14T18:52:57.414Z,24.40
2018-02-14T18:55:25.489Z,27.62
2018-02-14T18:57:53.576Z,25.62
2018-02-14T19:00:21.762Z,27.23
2018-02-14T19:02:49.825Z,25.40
2018-02-14T19:05:19.629Z,25.80
2018-02-14T19:07:48.815Z,27.00
2018-02-14T19:10:16.931Z,27.20
2018-02-14T19:12:44.994Z,26.90
2018-02-14T19:15:13.084Z,27.37
2018-02-14T19:17:41.141Z,27.60
2018-02-14T19:20:09.341Z,27.30
2018-02-14T19:22:37.409Z,26.43
2018-02-14T19:25:05.481Z,27.90
2018-02-14T19:27:33.554Z,26.55
2018-02-14T19:30:01.621Z,27.37
2018-02-14T19:32:29.697Z,26.50
2018-02-14T19:34:57.757Z,27.40
2018-02-14T19:37:25.838Z,28.90
2018-02-14T19:39:53.902Z,27.67
2018-02-14T19:42:21.984Z,27.60
2018-02-14T19:44:50.038Z,25.90
2018-02-14T19:47:20.002Z,28.33
2018-02-14T19:49:48.062Z,28.20
2018-02-14T19:52:16.150Z,28.67
2018-02-14T19:54:44.243Z,29.40
2018-02-14T19:57:12.423Z,26.35
2018-02-14T19:59:40.500Z,26.57
2018-02-14T20:02:09.462Z,28.73
2018-02-14T20:04:37.518Z,28.52
2018-02-14T20:07:06.470Z,27.67
2018-02-14T20:09:34.537Z,29.02
2018-02-14T20:12:02.609Z,25.03
2018-02-14T20:14:30.679Z,29.45
2018-02-14T20:16:58.743Z,27.63
2018-02-14T20:19:26.858Z,25.85
2018-02-14T20:21:54.918Z,28.52
2018-02-14T20:24:22.994Z,27.93
2018-02-14T20:26:52.177Z,30.02
2018-02-14T20:29:20.278Z,27.67
2018-02-14T20:31:48.341Z,29.53
2018-02-14T20:34:16.429Z,27.77
2018-02-14T20:36:44.493Z,28.30
2018-02-14T20:39:12.565Z,26.60
2018-02-14T20:41:40.631Z,28.50
2018-02-14T20:44:08.734Z,26.27
2018-02-14T20:46:36.813Z,30.43
2018-02-14T20:49:04.989Z,33.50
2018-02-14T20:51:33.066Z,35.47
2018-02-14T20:54:01.150Z,33.90
2018-02-14T20:56:29.213Z,35.70
2018-02-14T20:58:57.278Z,32.22
2018-02-14T21:01:25.379Z,28.95
2018-02-14T21:03:53.453Z,27.20
2018-02-14T21:06:21.525Z,27.20
2018-02-14T21:08:50.718Z,28.87
2018-02-14T21:11:18.909Z,25.87
2018-02-14T21:13:46.988Z,25.00
2018-02-14T21:16:15.042Z,28.40
2018-02-14T21:18:43.141Z,23.63
2018-02-14T21:21:11.202Z,26.65
2018-02-14T21:23:39.263Z,26.20
2018-02-14T21:26:07.334Z,27.80
2018-02-14T21:28:35.410Z,25.67
2018-02-14T21:31:03.559Z,25.07
2018-02-14T21:33:31.590Z,27.23
2018-02-14T21:35:59.674Z,25.63
2018-02-14T21:38:27.758Z,26.08
2018-02-14T21:40:55.817Z,26.12
2018-02-14T21:43:25.005Z,26.10
2018-02-14T21:45:53.081Z,26.10
2018-02-14T21:48:21.161Z,23.77
2018-02-14T21:50:49.227Z,24.73
2018-02-14T21:53:17.321Z,24.70
2018-02-14T21:55:46.039Z,24.80
2018-02-14T21:58:14.922Z,23.90
2018-02-14T22:00:43.102Z,21.70
2018-02-14T22:03:11.174Z,23.77
2018-02-14T22:05:39.246Z,22.80
2018-02-14T22:08:07.320Z,23.90
2018-02-14T22:10:35.392Z,22.80
2018-02-14T22:13:03.457Z,23.95
2018-02-14T22:15:31.521Z,24.17
2018-02-14T22:18:00.366Z,23.27
2018-02-14T22:20:28.442Z,23.60
2018-02-14T22:22:56.515Z,24.12
2018-02-14T22:25:25.707Z,22.70
2018-02-14T22:27:53.765Z,23.23
2018-02-14T22:30:21.958Z,23.43
2018-02-14T22:32:50.145Z,24.30
2018-02-14T22:35:18.214Z,23.53
2018-02-14T22:37:46.273Z,23.50
2018-02-14T22:40:14.350Z,21.77
2018-02-14T22:42:42.437Z,21.43
2018-02-14T22:45:10.510Z,20.23
2018-02-14T22:47:38.574Z,22.43
2018-02-14T22:50:06.656Z,22.87
2018-02-14T22:52:34.718Z,22.27
2018-02-14T22:55:02.796Z,21.75
2018-02-14T22:57:30.860Z,21.00
2018-02-14T22:59:58.941Z,23.40
2018-02-14T23:02:27.462Z,22.23
2018-02-14T23:04:56.396Z,21.75
2018-02-14T23:07:26.378Z,23.70
2018-02-14T23:09:54.925Z,25.03
2018-02-14T23:12:23.280Z,22.37
2018-02-14T23:14:52.918Z,23.30
2018-02-14T23:17:20.995Z,23.27
2018-02-14T23:19:49.057Z,21.43
2018-02-14T23:22:18.002Z,22.50
2018-02-14T23:24:46.078Z,22.70
2018-02-14T23:27:14.253Z,21.87
2018-02-14T23:29:42.347Z,22.50
2018-02-14T23:32:10.409Z,22.77
2018-02-14T23:34:38.483Z,21.03
2018-02-14T23:37:06.563Z,19.50
2018-02-14T23:39:34.652Z,21.10
2018-02-14T23:42:02.714Z,18.63
2018-02-14T23:44:30.778Z,19.67
2018-02-14T23:46:58.865Z,21.07
2018-02-14T23:49:26.933Z,20.37
2018-02-14T23:51:55.034Z,20.10
2018-02-14T23:54:23.110Z,21.63
2018-02-14T23:56:52.323Z,18.77
2018-02-14T23:59:20.477Z,18.33
